BRS2901 LPPT-GVAC
Flight info
| Callsign | BRS2901 |
|---|---|
| Flight time | 3h 37m |
| Altitude | 39000 |
| Route | ULVOT DCT BEXAL UN866 KONBA DCT GURKA DCT BRICK DCT GOMER/N0470F400 N866 TENPA DCT PINPO PINPO1F |
| Aircraft | A332/H-SDE3GHIJ2J3J5M1RVWXY/LB2D1 |
Departure
| Time | 2026-04-23 22:57 |
|---|---|
| Airport | Lisbon Humberto Delgado Airport (LPPT) |
Arrival
| Time | 2026-04-24 02:35 |
|---|---|
| Airport | Amílcar Cabral International Airport (GVAC) |
| Time | Latitude | Longitude | Altitude | Speed | Heading |
|---|---|---|---|---|---|
| 2026-04-23 22:10 | 38.77934 | -9.12982 | 328 ft | 0 kts | 319° |
| 2026-04-23 22:44 | 38.77933 | -9.12981 | 328 ft | 1 kts | 319° |
| 2026-04-23 22:45 | 38.77925 | -9.12973 | 328 ft | 2 kts | 312° |
| 2026-04-23 22:45 | 38.77918 | -9.12957 | 328 ft | 2 kts | 287° |
| 2026-04-23 22:45 | 38.77915 | -9.12938 | 328 ft | 2 kts | 268° |
| 2026-04-23 22:45 | 38.77917 | -9.12919 | 328 ft | 2 kts | 248° |
| 2026-04-23 22:46 | 38.77924 | -9.12902 | 328 ft | 2 kts | 228° |
| 2026-04-23 22:46 | 38.77932 | -9.12893 | 329 ft | 0 kts | 214° |
| 2026-04-23 22:46 | 38.77935 | -9.12890 | 329 ft | 0 kts | 213° |
| 2026-04-23 22:50 | 38.77916 | -9.12907 | 328 ft | 5 kts | 214° |
| 2026-04-23 22:51 | 38.77875 | -9.12941 | 328 ft | 7 kts | 214° |
| 2026-04-23 22:51 | 38.77827 | -9.12982 | 327 ft | 8 kts | 213° |
| 2026-04-23 22:51 | 38.77786 | -9.13038 | 326 ft | 8 kts | 239° |
| 2026-04-23 22:51 | 38.77768 | -9.13108 | 327 ft | 7 kts | 257° |
| 2026-04-23 22:52 | 38.77758 | -9.13165 | 329 ft | 5 kts | 258° |
| 2026-04-23 22:52 | 38.77748 | -9.13222 | 332 ft | 8 kts | 258° |
| 2026-04-23 22:52 | 38.77733 | -9.13314 | 337 ft | 13 kts | 254° |
| 2026-04-23 22:52 | 38.77648 | -9.13393 | 340 ft | 16 kts | 202° |
| 2026-04-23 22:53 | 38.77537 | -9.13452 | 338 ft | 18 kts | 205° |
| 2026-04-23 22:53 | 38.77430 | -9.13533 | 337 ft | 17 kts | 185° |
| 2026-04-23 22:53 | 38.77331 | -9.13514 | 330 ft | 11 kts | 181° |
| 2026-04-23 22:53 | 38.77285 | -9.13570 | 334 ft | 8 kts | 257° |
| 2026-04-23 22:54 | 38.77274 | -9.13642 | 341 ft | 7 kts | 258° |
| 2026-04-23 22:54 | 38.77262 | -9.13713 | 348 ft | 9 kts | 258° |
| 2026-04-23 22:54 | 38.77242 | -9.13816 | 352 ft | 14 kts | 241° |
| 2026-04-23 22:54 | 38.77147 | -9.13890 | 353 ft | 16 kts | 203° |
| 2026-04-23 22:55 | 38.77037 | -9.13948 | 351 ft | 17 kts | 203° |
| 2026-04-23 22:55 | 38.76913 | -9.14015 | 345 ft | 20 kts | 203° |
| 2026-04-23 22:55 | 38.76779 | -9.14087 | 341 ft | 20 kts | 202° |
| 2026-04-23 22:55 | 38.76656 | -9.14152 | 341 ft | 16 kts | 202° |
| 2026-04-23 22:56 | 38.76599 | -9.14197 | 342 ft | 7 kts | 242° |
| 2026-04-23 22:56 | 38.76604 | -9.14265 | 342 ft | 7 kts | 292° |
| 2026-04-23 22:56 | 38.76632 | -9.14344 | 342 ft | 11 kts | 306° |
| 2026-04-23 22:56 | 38.76720 | -9.14348 | 341 ft | 18 kts | 22° |
| 2026-04-23 22:57 | 38.77046 | -9.14174 | 348 ft | 91 kts | 22° |
| 2026-04-23 22:57 | 38.77879 | -9.13726 | 367 ft | 166 kts | 22° |
| 2026-04-23 22:57 | 38.79044 | -9.13103 | 939 ft | 189 kts | 18° |
| 2026-04-23 22:57 | 38.80191 | -9.12422 | 2120 ft | 185 kts | 25° |
| 2026-04-23 22:58 | 38.81299 | -9.11646 | 2625 ft | 186 kts | 26° |
| 2026-04-23 22:58 | 38.82479 | -9.10785 | 2853 ft | 206 kts | 28° |
| 2026-04-23 22:58 | 38.83775 | -9.09825 | 3168 ft | 228 kts | 28° |
| 2026-04-23 22:58 | 38.85210 | -9.08761 | 3641 ft | 245 kts | 29° |
| 2026-04-23 22:59 | 38.86724 | -9.07627 | 4134 ft | 261 kts | 32° |
| 2026-04-23 22:59 | 38.87978 | -9.05952 | 4800 ft | 270 kts | 60° |
| 2026-04-23 22:59 | 38.88469 | -9.03643 | 5584 ft | 275 kts | 89° |
| 2026-04-23 22:59 | 38.88044 | -9.01261 | 6391 ft | 276 kts | 118° |
| 2026-04-23 23:00 | 38.86940 | -8.99286 | 7172 ft | 277 kts | 126° |
| 2026-04-23 23:00 | 38.85602 | -8.97526 | 7877 ft | 279 kts | 149° |
| 2026-04-23 23:00 | 38.83821 | -8.96725 | 8622 ft | 278 kts | 174° |
| 2026-04-23 23:00 | 38.81911 | -8.97008 | 9394 ft | 278 kts | 200° |
| 2026-04-23 23:01 | 38.80134 | -8.97961 | 10111 ft | 281 kts | 202° |
| 2026-04-23 23:01 | 38.78294 | -8.98940 | 10652 ft | 292 kts | 202° |
| 2026-04-23 23:01 | 38.76361 | -8.99976 | 10984 ft | 310 kts | 202° |
| 2026-04-23 23:01 | 38.74301 | -9.01081 | 11311 ft | 329 kts | 202° |
| 2026-04-23 23:02 | 38.72138 | -9.02239 | 11577 ft | 347 kts | 202° |
| 2026-04-23 23:02 | 38.69859 | -9.03460 | 12033 ft | 359 kts | 202° |
| 2026-04-23 23:02 | 38.67583 | -9.04678 | 12752 ft | 361 kts | 202° |
| 2026-04-23 23:02 | 38.65249 | -9.05926 | 13453 ft | 363 kts | 202° |
| 2026-04-23 23:03 | 38.62918 | -9.07171 | 14076 ft | 367 kts | 202° |
| 2026-04-23 23:03 | 38.60542 | -9.08441 | 14689 ft | 371 kts | 202° |
| 2026-04-23 23:03 | 38.58177 | -9.09703 | 15335 ft | 374 kts | 202° |
| 2026-04-23 23:03 | 38.55769 | -9.10987 | 15949 ft | 377 kts | 202° |
| 2026-04-23 23:04 | 38.53332 | -9.12286 | 16568 ft | 380 kts | 202° |
| 2026-04-23 23:04 | 38.50903 | -9.13579 | 17184 ft | 382 kts | 202° |
| 2026-04-23 23:04 | 38.48417 | -9.14902 | 17779 ft | 386 kts | 202° |
| 2026-04-23 23:04 | 38.45947 | -9.16215 | 18310 ft | 389 kts | 202° |
| 2026-04-23 23:05 | 38.43442 | -9.17545 | 18916 ft | 391 kts | 202° |
| 2026-04-23 23:05 | 38.41067 | -9.19218 | 19441 ft | 395 kts | 216° |
| 2026-04-23 23:05 | 38.38887 | -9.21380 | 20009 ft | 397 kts | 216° |
| 2026-04-23 23:05 | 38.36711 | -9.23504 | 20510 ft | 400 kts | 216° |
| 2026-04-23 23:06 | 38.34490 | -9.25669 | 21072 ft | 401 kts | 216° |
| 2026-04-23 23:06 | 38.32287 | -9.27815 | 21535 ft | 404 kts | 216° |
| 2026-04-23 23:06 | 38.30032 | -9.30011 | 22051 ft | 406 kts | 216° |
| 2026-04-23 23:06 | 38.27799 | -9.32179 | 22503 ft | 409 kts | 216° |
| 2026-04-23 23:07 | 38.25528 | -9.34387 | 22978 ft | 411 kts | 216° |
| 2026-04-23 23:07 | 38.23253 | -9.36595 | 23474 ft | 413 kts | 216° |
| 2026-04-23 23:07 | 38.20981 | -9.38800 | 23952 ft | 415 kts | 216° |
| 2026-04-23 23:07 | 38.18673 | -9.41037 | 24343 ft | 419 kts | 216° |
| 2026-04-23 23:08 | 38.16341 | -9.43298 | 24857 ft | 420 kts | 216° |
| 2026-04-23 23:08 | 38.14022 | -9.45540 | 25283 ft | 422 kts | 216° |
| 2026-04-23 23:08 | 38.11696 | -9.47791 | 25685 ft | 425 kts | 216° |
| 2026-04-23 23:08 | 38.09338 | -9.50071 | 26160 ft | 426 kts | 216° |
| 2026-04-23 23:09 | 38.06974 | -9.52354 | 26531 ft | 429 kts | 216° |
| 2026-04-23 23:09 | 38.04587 | -9.54657 | 26935 ft | 432 kts | 216° |
| 2026-04-23 23:09 | 38.02219 | -9.56939 | 27395 ft | 433 kts | 215° |
| 2026-04-23 23:09 | 37.99825 | -9.59253 | 27804 ft | 435 kts | 216° |
| 2026-04-23 23:10 | 37.97502 | -9.61734 | 28157 ft | 439 kts | 218° |
| 2026-04-23 23:10 | 37.95147 | -9.64255 | 28524 ft | 441 kts | 218° |
| 2026-04-23 23:10 | 37.92823 | -9.66737 | 28908 ft | 442 kts | 217° |
| 2026-04-23 23:10 | 37.90461 | -9.69257 | 29240 ft | 445 kts | 217° |
| 2026-04-23 23:11 | 37.88081 | -9.71791 | 29612 ft | 446 kts | 217° |
| 2026-04-23 23:11 | 37.85734 | -9.74289 | 30092 ft | 445 kts | 217° |
| 2026-04-23 23:11 | 37.83378 | -9.76795 | 30589 ft | 443 kts | 217° |
| 2026-04-23 23:11 | 37.81003 | -9.79318 | 31044 ft | 442 kts | 217° |
| 2026-04-23 23:12 | 37.78667 | -9.81797 | 31411 ft | 441 kts | 217° |
| 2026-04-23 23:12 | 37.76325 | -9.84281 | 31811 ft | 440 kts | 217° |
| 2026-04-23 23:12 | 37.73968 | -9.86779 | 32225 ft | 439 kts | 217° |
| 2026-04-23 23:12 | 37.71659 | -9.89223 | 32582 ft | 438 kts | 217° |
| 2026-04-23 23:13 | 37.69332 | -9.91685 | 32953 ft | 437 kts | 217° |
| 2026-04-23 23:13 | 37.67001 | -9.94149 | 33327 ft | 436 kts | 217° |
| 2026-04-23 23:13 | 37.64661 | -9.96619 | 33641 ft | 436 kts | 217° |
| 2026-04-23 23:13 | 37.62347 | -9.99055 | 33991 ft | 434 kts | 216° |
| 2026-04-23 23:14 | 37.59918 | -10.01268 | 34307 ft | 431 kts | 212° |
| 2026-04-23 23:14 | 37.57481 | -10.03453 | 34555 ft | 432 kts | 213° |
| 2026-04-23 23:14 | 37.55042 | -10.05647 | 34806 ft | 431 kts | 213° |
| 2026-04-23 23:14 | 37.52626 | -10.07823 | 35049 ft | 430 kts | 213° |
| 2026-04-23 23:15 | 37.50182 | -10.10023 | 35220 ft | 431 kts | 213° |
| 2026-04-23 23:15 | 37.47753 | -10.12210 | 35453 ft | 431 kts | 214° |
| 2026-04-23 23:15 | 37.45318 | -10.14400 | 35636 ft | 430 kts | 214° |
| 2026-04-23 23:15 | 37.42870 | -10.16599 | 35757 ft | 431 kts | 214° |
| 2026-04-23 23:16 | 37.40440 | -10.18780 | 35909 ft | 431 kts | 214° |
| 2026-04-23 23:16 | 37.38021 | -10.20951 | 36109 ft | 431 kts | 214° |
| 2026-04-23 23:16 | 37.35586 | -10.23134 | 36301 ft | 431 kts | 214° |
| 2026-04-23 23:16 | 37.33126 | -10.25338 | 36481 ft | 432 kts | 214° |
| 2026-04-23 23:17 | 37.30682 | -10.27524 | 36673 ft | 432 kts | 215° |
| 2026-04-23 23:17 | 37.28255 | -10.29694 | 36838 ft | 432 kts | 215° |
| 2026-04-23 23:17 | 37.25814 | -10.31875 | 37003 ft | 433 kts | 215° |
| 2026-04-23 23:17 | 37.23357 | -10.34070 | 37228 ft | 431 kts | 215° |
| 2026-04-23 23:18 | 37.20911 | -10.36251 | 37452 ft | 430 kts | 215° |
| 2026-04-23 23:18 | 37.18497 | -10.38403 | 37684 ft | 429 kts | 215° |
| 2026-04-23 23:18 | 37.16085 | -10.40551 | 37898 ft | 427 kts | 216° |
| 2026-04-23 23:18 | 37.13670 | -10.42700 | 38124 ft | 426 kts | 216° |
| 2026-04-23 23:19 | 37.11261 | -10.44842 | 38339 ft | 424 kts | 216° |
| 2026-04-23 23:19 | 37.08876 | -10.46960 | 38553 ft | 422 kts | 216° |
| 2026-04-23 23:19 | 37.06497 | -10.49073 | 38770 ft | 420 kts | 216° |
| 2026-04-23 23:19 | 37.04096 | -10.51202 | 38998 ft | 418 kts | 216° |
| 2026-04-23 23:20 | 37.01724 | -10.53306 | 39070 ft | 420 kts | 216° |
| 2026-04-23 23:20 | 36.96941 | -10.57541 | 39069 ft | 427 kts | 216° |
| 2026-04-23 23:21 | 36.92058 | -10.61857 | 39062 ft | 432 kts | 216° |
| 2026-04-23 23:21 | 36.87117 | -10.66217 | 39075 ft | 436 kts | 216° |
| 2026-04-23 23:22 | 36.82155 | -10.70589 | 39064 ft | 441 kts | 216° |
| 2026-04-23 23:22 | 36.77144 | -10.74998 | 39072 ft | 444 kts | 216° |
| 2026-04-23 23:23 | 36.72061 | -10.79461 | 39064 ft | 446 kts | 216° |
| 2026-04-23 23:23 | 36.66978 | -10.83918 | 39071 ft | 448 kts | 216° |
| 2026-04-23 23:24 | 36.61900 | -10.88364 | 39070 ft | 450 kts | 216° |
| 2026-04-23 23:24 | 36.56797 | -10.92822 | 39065 ft | 450 kts | 217° |
| 2026-04-23 23:25 | 36.51651 | -10.97312 | 39065 ft | 451 kts | 216° |
| 2026-04-23 23:25 | 36.46498 | -11.01799 | 39064 ft | 452 kts | 217° |
| 2026-04-23 23:26 | 36.41361 | -11.06267 | 39064 ft | 452 kts | 217° |
| 2026-04-23 23:26 | 36.36298 | -11.10663 | 39069 ft | 453 kts | 217° |
| 2026-04-23 23:27 | 36.31127 | -11.15143 | 39066 ft | 453 kts | 217° |
| 2026-04-23 23:27 | 36.25977 | -11.19599 | 39065 ft | 453 kts | 217° |
| 2026-04-23 23:28 | 36.20792 | -11.24079 | 39061 ft | 454 kts | 217° |
| 2026-04-23 23:28 | 36.15655 | -11.28509 | 39064 ft | 454 kts | 217° |
| 2026-04-23 23:29 | 36.10445 | -11.32995 | 39062 ft | 454 kts | 217° |
| 2026-04-23 23:29 | 36.05298 | -11.37421 | 39065 ft | 454 kts | 217° |
| 2026-04-23 23:30 | 36.00101 | -11.41879 | 39066 ft | 455 kts | 217° |
| 2026-04-23 23:30 | 35.94945 | -11.46333 | 39065 ft | 454 kts | 218° |
| 2026-04-23 23:31 | 35.89803 | -11.50861 | 39066 ft | 455 kts | 218° |
| 2026-04-23 23:31 | 35.84638 | -11.55398 | 39064 ft | 455 kts | 218° |
| 2026-04-23 23:32 | 35.79495 | -11.59907 | 39067 ft | 455 kts | 219° |
| 2026-04-23 23:32 | 35.74357 | -11.64404 | 39064 ft | 455 kts | 219° |
| 2026-04-23 23:33 | 35.69192 | -11.68918 | 39070 ft | 456 kts | 218° |
| 2026-04-23 23:33 | 35.64025 | -11.73429 | 39070 ft | 456 kts | 218° |
| 2026-04-23 23:34 | 35.58865 | -11.77922 | 39069 ft | 457 kts | 218° |
| 2026-04-23 23:34 | 35.53683 | -11.82429 | 39068 ft | 457 kts | 218° |
| 2026-04-23 23:35 | 35.48491 | -11.86938 | 39070 ft | 458 kts | 219° |
| 2026-04-23 23:35 | 35.43301 | -11.91436 | 39067 ft | 458 kts | 219° |
| 2026-04-23 23:36 | 35.38083 | -11.95952 | 39067 ft | 458 kts | 219° |
| 2026-04-23 23:36 | 35.32901 | -12.00432 | 39068 ft | 459 kts | 219° |
| 2026-04-23 23:37 | 35.27698 | -12.04920 | 39070 ft | 459 kts | 219° |
| 2026-04-23 23:37 | 35.22483 | -12.09412 | 39067 ft | 459 kts | 219° |
| 2026-04-23 23:38 | 35.17265 | -12.13900 | 39066 ft | 459 kts | 219° |
| 2026-04-23 23:38 | 35.12075 | -12.18356 | 39069 ft | 459 kts | 219° |
| 2026-04-23 23:39 | 35.06849 | -12.22833 | 39070 ft | 459 kts | 220° |
| 2026-04-23 23:39 | 35.01629 | -12.27303 | 39063 ft | 459 kts | 220° |
| 2026-04-23 23:40 | 34.96389 | -12.31780 | 39065 ft | 459 kts | 219° |
| 2026-04-23 23:40 | 34.91144 | -12.36255 | 39066 ft | 460 kts | 220° |
| 2026-04-23 23:41 | 34.85905 | -12.40718 | 39063 ft | 459 kts | 220° |
| 2026-04-23 23:41 | 34.80705 | -12.45140 | 39068 ft | 459 kts | 220° |
| 2026-04-23 23:42 | 34.75473 | -12.49582 | 39068 ft | 459 kts | 220° |
| 2026-04-23 23:42 | 34.70240 | -12.54018 | 39073 ft | 459 kts | 220° |
| 2026-04-23 23:43 | 34.65001 | -12.58453 | 39069 ft | 459 kts | 220° |
| 2026-04-23 23:43 | 34.59777 | -12.62869 | 39057 ft | 459 kts | 220° |
| 2026-04-23 23:44 | 34.54533 | -12.67293 | 39077 ft | 459 kts | 220° |
| 2026-04-23 23:44 | 34.49284 | -12.71715 | 39078 ft | 459 kts | 220° |
| 2026-04-23 23:45 | 34.44059 | -12.76110 | 39076 ft | 460 kts | 220° |
| 2026-04-23 23:45 | 34.38793 | -12.80532 | 39076 ft | 460 kts | 220° |
| 2026-04-23 23:46 | 34.33565 | -12.84917 | 39074 ft | 460 kts | 220° |
| 2026-04-23 23:46 | 34.28298 | -12.89327 | 39072 ft | 460 kts | 221° |
| 2026-04-23 23:47 | 34.23035 | -12.93755 | 39077 ft | 460 kts | 221° |
| 2026-04-23 23:47 | 34.17795 | -12.98175 | 39072 ft | 460 kts | 221° |
| 2026-04-23 23:48 | 34.12579 | -13.02568 | 39075 ft | 460 kts | 221° |
| 2026-04-23 23:48 | 34.07336 | -13.06979 | 39076 ft | 459 kts | 221° |
| 2026-04-23 23:49 | 33.99475 | -13.13580 | 39079 ft | 460 kts | 221° |
| 2026-04-23 23:49 | 33.94194 | -13.18002 | 39067 ft | 460 kts | 221° |
| 2026-04-23 23:50 | 33.88940 | -13.22396 | 39088 ft | 460 kts | 222° |
| 2026-04-23 23:50 | 33.83701 | -13.26776 | 39087 ft | 460 kts | 222° |
| 2026-04-23 23:51 | 33.78455 | -13.31150 | 39072 ft | 460 kts | 222° |
| 2026-04-23 23:51 | 33.73201 | -13.35526 | 39048 ft | 459 kts | 222° |
| 2026-04-23 23:52 | 33.67973 | -13.39874 | 39073 ft | 459 kts | 222° |
| 2026-04-23 23:52 | 33.62730 | -13.44223 | 39066 ft | 459 kts | 223° |
| 2026-04-23 23:53 | 33.57454 | -13.48598 | 39082 ft | 459 kts | 223° |
| 2026-04-23 23:53 | 33.52210 | -13.52940 | 39109 ft | 458 kts | 223° |
| 2026-04-23 23:54 | 33.46986 | -13.57257 | 39099 ft | 458 kts | 223° |
| 2026-04-23 23:54 | 33.41724 | -13.61601 | 39075 ft | 458 kts | 223° |
| 2026-04-23 23:55 | 33.36507 | -13.65900 | 39074 ft | 458 kts | 222° |
| 2026-04-23 23:55 | 33.31260 | -13.70217 | 39089 ft | 459 kts | 223° |
| 2026-04-23 23:56 | 33.25990 | -13.74545 | 39091 ft | 459 kts | 223° |
| 2026-04-23 23:56 | 33.20725 | -13.78865 | 39050 ft | 460 kts | 223° |
| 2026-04-23 23:57 | 33.15468 | -13.83169 | 39099 ft | 461 kts | 224° |
| 2026-04-23 23:57 | 33.10184 | -13.87469 | 39094 ft | 460 kts | 223° |
| 2026-04-23 23:58 | 33.04881 | -13.91771 | 39071 ft | 460 kts | 223° |
| 2026-04-23 23:58 | 32.99590 | -13.96056 | 39089 ft | 460 kts | 223° |
| 2026-04-23 23:59 | 32.94309 | -14.00328 | 39083 ft | 460 kts | 223° |
| 2026-04-23 23:59 | 32.89030 | -14.04593 | 39078 ft | 460 kts | 224° |
| 2026-04-24 00:00 | 32.83723 | -14.08872 | 39068 ft | 460 kts | 223° |
| 2026-04-24 00:00 | 32.78443 | -14.13125 | 39063 ft | 460 kts | 223° |
| 2026-04-24 00:01 | 32.73135 | -14.17393 | 39071 ft | 459 kts | 223° |
| 2026-04-24 00:01 | 32.67883 | -14.21611 | 39080 ft | 458 kts | 224° |
| 2026-04-24 00:02 | 32.62600 | -14.25847 | 39071 ft | 458 kts | 224° |
| 2026-04-24 00:02 | 32.57304 | -14.30087 | 39086 ft | 457 kts | 224° |
| 2026-04-24 00:03 | 32.52049 | -14.34287 | 39099 ft | 457 kts | 223° |
| 2026-04-24 00:03 | 32.46783 | -14.38494 | 39102 ft | 456 kts | 223° |
| 2026-04-24 00:04 | 32.41520 | -14.42688 | 39101 ft | 455 kts | 224° |
| 2026-04-24 00:04 | 32.36283 | -14.46859 | 39095 ft | 455 kts | 224° |
| 2026-04-24 00:05 | 32.31015 | -14.51046 | 39093 ft | 455 kts | 224° |
| 2026-04-24 00:05 | 32.25771 | -14.55209 | 39095 ft | 454 kts | 224° |
| 2026-04-24 00:06 | 32.20567 | -14.59333 | 39095 ft | 454 kts | 224° |
| 2026-04-24 00:06 | 32.15321 | -14.63487 | 39113 ft | 454 kts | 223° |
| 2026-04-24 00:07 | 32.10063 | -14.67641 | 39126 ft | 455 kts | 223° |
| 2026-04-24 00:07 | 32.04817 | -14.71784 | 39116 ft | 456 kts | 223° |
| 2026-04-24 00:08 | 31.99546 | -14.75940 | 39117 ft | 456 kts | 223° |
| 2026-04-24 00:08 | 31.94290 | -14.80076 | 39110 ft | 456 kts | 223° |
| 2026-04-24 00:09 | 31.89009 | -14.84227 | 39113 ft | 456 kts | 223° |
| 2026-04-24 00:09 | 31.83751 | -14.88355 | 39118 ft | 455 kts | 223° |
| 2026-04-24 00:10 | 31.78453 | -14.92508 | 39107 ft | 455 kts | 223° |
| 2026-04-24 00:10 | 31.73197 | -14.96623 | 39104 ft | 455 kts | 223° |
| 2026-04-24 00:11 | 31.67944 | -15.00729 | 39111 ft | 454 kts | 223° |
| 2026-04-24 00:11 | 31.62697 | -15.04823 | 39111 ft | 454 kts | 223° |
| 2026-04-24 00:12 | 31.57449 | -15.08916 | 39108 ft | 454 kts | 222° |
| 2026-04-24 00:12 | 31.52198 | -15.13004 | 39104 ft | 454 kts | 223° |
| 2026-04-24 00:13 | 31.46911 | -15.17113 | 39104 ft | 453 kts | 222° |
| 2026-04-24 00:13 | 31.41690 | -15.21168 | 39109 ft | 453 kts | 222° |
| 2026-04-24 00:14 | 31.36413 | -15.25259 | 39103 ft | 453 kts | 222° |
| 2026-04-24 00:14 | 31.31169 | -15.29316 | 39111 ft | 453 kts | 222° |
| 2026-04-24 00:15 | 31.25663 | -15.32994 | 39110 ft | 459 kts | 217° |
| 2026-04-24 00:15 | 31.20067 | -15.36557 | 39106 ft | 459 kts | 217° |
| 2026-04-24 00:16 | 31.14439 | -15.40144 | 39102 ft | 459 kts | 217° |
| 2026-04-24 00:16 | 31.08843 | -15.43707 | 39111 ft | 459 kts | 217° |
| 2026-04-24 00:17 | 31.03238 | -15.47269 | 39105 ft | 458 kts | 217° |
| 2026-04-24 00:17 | 30.97649 | -15.50818 | 39106 ft | 458 kts | 217° |
| 2026-04-24 00:18 | 30.92052 | -15.54366 | 39106 ft | 459 kts | 217° |
| 2026-04-24 00:18 | 30.86444 | -15.57918 | 39096 ft | 458 kts | 217° |
| 2026-04-24 00:19 | 30.80836 | -15.61463 | 39098 ft | 458 kts | 217° |
| 2026-04-24 00:19 | 30.75253 | -15.64990 | 39101 ft | 457 kts | 217° |
| 2026-04-24 00:21 | 30.52134 | -15.79539 | 39118 ft | 460 kts | 216° |
| 2026-04-24 00:22 | 30.46501 | -15.83074 | 39120 ft | 460 kts | 216° |
| 2026-04-24 00:22 | 30.40851 | -15.86612 | 39115 ft | 460 kts | 216° |
| 2026-04-24 00:23 | 30.35259 | -15.90111 | 39116 ft | 460 kts | 216° |
| 2026-04-24 00:23 | 30.29604 | -15.93643 | 39130 ft | 459 kts | 216° |
| 2026-04-24 00:24 | 30.23996 | -15.97142 | 39136 ft | 459 kts | 216° |
| 2026-04-24 00:24 | 30.19314 | -16.00060 | 39112 ft | 459 kts | 216° |
| 2026-04-24 00:25 | 30.12749 | -16.04145 | 39126 ft | 459 kts | 216° |
| 2026-04-24 00:25 | 30.07120 | -16.07644 | 39126 ft | 459 kts | 216° |
| 2026-04-24 00:26 | 30.01498 | -16.11133 | 39118 ft | 459 kts | 216° |
| 2026-04-24 00:26 | 29.95863 | -16.14626 | 39126 ft | 459 kts | 216° |
| 2026-04-24 00:27 | 29.90252 | -16.18099 | 39114 ft | 459 kts | 216° |
| 2026-04-24 00:27 | 29.84646 | -16.21565 | 39120 ft | 458 kts | 216° |
| 2026-04-24 00:28 | 29.79041 | -16.25026 | 39113 ft | 459 kts | 216° |
| 2026-04-24 00:28 | 29.73402 | -16.28503 | 39118 ft | 458 kts | 216° |
| 2026-04-24 00:29 | 29.67768 | -16.31973 | 39117 ft | 458 kts | 216° |
| 2026-04-24 00:29 | 29.62176 | -16.35412 | 39127 ft | 458 kts | 216° |
| 2026-04-24 00:30 | 29.56552 | -16.38867 | 39124 ft | 457 kts | 216° |
| 2026-04-24 00:30 | 29.50930 | -16.42316 | 39115 ft | 457 kts | 216° |
| 2026-04-24 00:31 | 29.45354 | -16.45733 | 39119 ft | 457 kts | 216° |
| 2026-04-24 00:31 | 29.39717 | -16.49183 | 39122 ft | 457 kts | 216° |
| 2026-04-24 00:32 | 29.34132 | -16.52595 | 39117 ft | 457 kts | 216° |
| 2026-04-24 00:32 | 29.28487 | -16.56040 | 39117 ft | 457 kts | 216° |
| 2026-04-24 00:33 | 29.22901 | -16.59447 | 39124 ft | 457 kts | 216° |
| 2026-04-24 00:33 | 29.17279 | -16.62869 | 39119 ft | 457 kts | 216° |
| 2026-04-24 00:34 | 29.11663 | -16.66284 | 39141 ft | 457 kts | 215° |
| 2026-04-24 00:34 | 29.06031 | -16.69706 | 39131 ft | 458 kts | 215° |
| 2026-04-24 00:35 | 29.00396 | -16.73124 | 39126 ft | 459 kts | 215° |
| 2026-04-24 00:35 | 28.94743 | -16.76548 | 39130 ft | 460 kts | 215° |
| 2026-04-24 00:36 | 28.89104 | -16.79960 | 39133 ft | 460 kts | 215° |
| 2026-04-24 00:36 | 28.83454 | -16.83375 | 39126 ft | 460 kts | 215° |
| 2026-04-24 00:37 | 28.77787 | -16.86794 | 39119 ft | 460 kts | 214° |
| 2026-04-24 00:37 | 28.72131 | -16.90204 | 39120 ft | 460 kts | 215° |
| 2026-04-24 00:38 | 28.66468 | -16.93614 | 39118 ft | 460 kts | 215° |
| 2026-04-24 00:38 | 28.60822 | -16.97009 | 39114 ft | 460 kts | 215° |
| 2026-04-24 00:39 | 28.55174 | -17.00402 | 39127 ft | 460 kts | 215° |
| 2026-04-24 00:39 | 28.49504 | -17.03803 | 39116 ft | 460 kts | 214° |
| 2026-04-24 00:40 | 28.43845 | -17.07193 | 39099 ft | 459 kts | 214° |
| 2026-04-24 00:40 | 28.38187 | -17.10580 | 39117 ft | 459 kts | 214° |
| 2026-04-24 00:41 | 28.32559 | -17.13942 | 39112 ft | 459 kts | 214° |
| 2026-04-24 00:41 | 28.26912 | -17.17315 | 39129 ft | 459 kts | 214° |
| 2026-04-24 00:42 | 28.21223 | -17.20706 | 39124 ft | 459 kts | 215° |
| 2026-04-24 00:42 | 28.15580 | -17.24067 | 39112 ft | 459 kts | 215° |
| 2026-04-24 00:43 | 28.09915 | -17.27437 | 39117 ft | 459 kts | 214° |
| 2026-04-24 00:43 | 28.04268 | -17.30792 | 39110 ft | 459 kts | 214° |
| 2026-04-24 00:44 | 27.98654 | -17.34267 | 39106 ft | 454 kts | 220° |
| 2026-04-24 00:44 | 27.93440 | -17.38215 | 39370 ft | 448 kts | 220° |
| 2026-04-24 00:45 | 27.90873 | -17.40134 | 39654 ft | 444 kts | 220° |
| 2026-04-24 00:45 | 27.88280 | -17.42068 | 39920 ft | 440 kts | 220° |
| 2026-04-24 00:45 | 27.85764 | -17.43944 | 40129 ft | 437 kts | 220° |
| 2026-04-24 00:45 | 27.83214 | -17.45847 | 40074 ft | 440 kts | 220° |
| 2026-04-24 00:46 | 27.78090 | -17.49660 | 40114 ft | 441 kts | 220° |
| 2026-04-24 00:46 | 27.72964 | -17.53469 | 40109 ft | 443 kts | 220° |
| 2026-04-24 00:47 | 27.67820 | -17.57290 | 40107 ft | 444 kts | 220° |
| 2026-04-24 00:47 | 27.62651 | -17.61123 | 40106 ft | 445 kts | 220° |
| 2026-04-24 00:48 | 27.57457 | -17.64971 | 40104 ft | 446 kts | 220° |
| 2026-04-24 00:48 | 27.52282 | -17.68801 | 40117 ft | 447 kts | 220° |
| 2026-04-24 00:49 | 27.47061 | -17.72660 | 40115 ft | 448 kts | 220° |
| 2026-04-24 00:49 | 27.41874 | -17.76490 | 40114 ft | 449 kts | 220° |
| 2026-04-24 00:50 | 27.36655 | -17.80338 | 40114 ft | 450 kts | 220° |
| 2026-04-24 00:50 | 27.31413 | -17.84199 | 40117 ft | 450 kts | 219° |
| 2026-04-24 00:51 | 27.26177 | -17.88051 | 40113 ft | 450 kts | 219° |
| 2026-04-24 00:51 | 27.20922 | -17.91913 | 40116 ft | 451 kts | 220° |
| 2026-04-24 00:52 | 27.15659 | -17.95776 | 40113 ft | 451 kts | 220° |
| 2026-04-24 00:52 | 27.10430 | -17.99611 | 40114 ft | 451 kts | 220° |
| 2026-04-24 00:53 | 27.05174 | -18.03460 | 40113 ft | 452 kts | 220° |
| 2026-04-24 00:53 | 26.99892 | -18.07324 | 40115 ft | 452 kts | 220° |
| 2026-04-24 00:54 | 26.94641 | -18.11160 | 40105 ft | 452 kts | 219° |
| 2026-04-24 00:54 | 26.89371 | -18.15007 | 40107 ft | 452 kts | 220° |
| 2026-04-24 00:55 | 26.84100 | -18.18850 | 40101 ft | 451 kts | 220° |
| 2026-04-24 00:55 | 26.78870 | -18.22658 | 40104 ft | 451 kts | 220° |
| 2026-04-24 00:56 | 26.73594 | -18.26497 | 40109 ft | 451 kts | 220° |
| 2026-04-24 00:56 | 26.68333 | -18.30320 | 40127 ft | 452 kts | 220° |
| 2026-04-24 00:57 | 26.63068 | -18.34141 | 40101 ft | 452 kts | 220° |
| 2026-04-24 00:58 | 26.55164 | -18.39869 | 40104 ft | 451 kts | 220° |
| 2026-04-24 00:58 | 26.49903 | -18.43676 | 40034 ft | 450 kts | 220° |
| 2026-04-24 00:59 | 26.44661 | -18.47468 | 40070 ft | 450 kts | 220° |
| 2026-04-24 00:59 | 26.39425 | -18.51249 | 40094 ft | 450 kts | 220° |
| 2026-04-24 01:00 | 26.34145 | -18.55057 | 40107 ft | 449 kts | 220° |
| 2026-04-24 01:00 | 26.28911 | -18.58830 | 40104 ft | 449 kts | 220° |
| 2026-04-24 01:01 | 26.23654 | -18.62615 | 40102 ft | 449 kts | 220° |
| 2026-04-24 01:01 | 26.18419 | -18.66377 | 40113 ft | 450 kts | 219° |
| 2026-04-24 01:02 | 26.13144 | -18.70166 | 40111 ft | 451 kts | 219° |
| 2026-04-24 01:02 | 26.07866 | -18.73953 | 40112 ft | 452 kts | 219° |
| 2026-04-24 01:03 | 26.02599 | -18.77729 | 40108 ft | 452 kts | 219° |
| 2026-04-24 01:03 | 25.97298 | -18.81523 | 40109 ft | 452 kts | 219° |
| 2026-04-24 01:04 | 25.92025 | -18.85293 | 40114 ft | 452 kts | 220° |
| 2026-04-24 01:04 | 25.86735 | -18.89073 | 40104 ft | 452 kts | 220° |
| 2026-04-24 01:05 | 25.81412 | -18.92872 | 40111 ft | 452 kts | 219° |
| 2026-04-24 01:05 | 25.76139 | -18.96631 | 40104 ft | 452 kts | 219° |
| 2026-04-24 01:06 | 25.70843 | -19.00401 | 40110 ft | 452 kts | 219° |
| 2026-04-24 01:06 | 25.65545 | -19.04169 | 40111 ft | 452 kts | 220° |
| 2026-04-24 01:07 | 25.60233 | -19.07944 | 40100 ft | 452 kts | 220° |
| 2026-04-24 01:07 | 25.54956 | -19.11689 | 40103 ft | 452 kts | 220° |
| 2026-04-24 01:08 | 25.49671 | -19.15436 | 40099 ft | 451 kts | 220° |
| 2026-04-24 01:08 | 25.44403 | -19.19168 | 40101 ft | 451 kts | 220° |
| 2026-04-24 01:09 | 25.39113 | -19.22911 | 40100 ft | 451 kts | 220° |
| 2026-04-24 01:09 | 25.33811 | -19.26658 | 40099 ft | 451 kts | 220° |
| 2026-04-24 01:10 | 25.28529 | -19.30387 | 40093 ft | 451 kts | 220° |
| 2026-04-24 01:10 | 25.23234 | -19.34122 | 40099 ft | 451 kts | 220° |
| 2026-04-24 01:11 | 25.17946 | -19.37846 | 40097 ft | 451 kts | 220° |
| 2026-04-24 01:11 | 25.12682 | -19.41552 | 40095 ft | 451 kts | 220° |
| 2026-04-24 01:12 | 25.07361 | -19.45292 | 40096 ft | 450 kts | 220° |
| 2026-04-24 01:12 | 25.02109 | -19.48982 | 40096 ft | 450 kts | 220° |
| 2026-04-24 01:13 | 24.96820 | -19.52691 | 40096 ft | 450 kts | 220° |
| 2026-04-24 01:13 | 24.91517 | -19.56407 | 40094 ft | 450 kts | 220° |
| 2026-04-24 01:14 | 24.86252 | -19.60093 | 40089 ft | 450 kts | 220° |
| 2026-04-24 01:14 | 24.80976 | -19.63781 | 40093 ft | 449 kts | 220° |
| 2026-04-24 01:15 | 24.75704 | -19.67465 | 40116 ft | 449 kts | 220° |
| 2026-04-24 01:15 | 24.70403 | -19.71164 | 40113 ft | 450 kts | 220° |
| 2026-04-24 01:16 | 24.65118 | -19.74847 | 40104 ft | 450 kts | 220° |
| 2026-04-24 01:16 | 24.59815 | -19.78541 | 40102 ft | 451 kts | 220° |
| 2026-04-24 01:17 | 24.54526 | -19.82221 | 40103 ft | 449 kts | 220° |
| 2026-04-24 01:17 | 24.49294 | -19.85855 | 40103 ft | 443 kts | 220° |
| 2026-04-24 01:18 | 24.44108 | -19.89457 | 40102 ft | 442 kts | 220° |
| 2026-04-24 01:18 | 24.38894 | -19.93074 | 40096 ft | 444 kts | 220° |
| 2026-04-24 01:19 | 24.33663 | -19.96698 | 40095 ft | 443 kts | 220° |
| 2026-04-24 01:19 | 24.28455 | -20.00303 | 40097 ft | 443 kts | 220° |
| 2026-04-24 01:20 | 24.23212 | -20.03931 | 40091 ft | 444 kts | 220° |
| 2026-04-24 01:20 | 24.18023 | -20.07515 | 40092 ft | 443 kts | 220° |
| 2026-04-24 01:21 | 24.12797 | -20.11122 | 40091 ft | 442 kts | 220° |
| 2026-04-24 01:21 | 24.07588 | -20.14712 | 40095 ft | 441 kts | 220° |
| 2026-04-24 01:22 | 24.02387 | -20.18297 | 40092 ft | 443 kts | 220° |
| 2026-04-24 01:22 | 23.97182 | -20.21879 | 40093 ft | 444 kts | 220° |
| 2026-04-24 01:23 | 23.91950 | -20.25475 | 40092 ft | 442 kts | 220° |
| 2026-04-24 01:23 | 23.86741 | -20.29055 | 40088 ft | 443 kts | 220° |
| 2026-04-24 01:24 | 23.81544 | -20.32619 | 40091 ft | 440 kts | 220° |
| 2026-04-24 01:24 | 23.76368 | -20.36170 | 40088 ft | 441 kts | 220° |
| 2026-04-24 01:25 | 23.71160 | -20.39738 | 40091 ft | 442 kts | 220° |
| 2026-04-24 01:25 | 23.65933 | -20.43313 | 40094 ft | 441 kts | 220° |
| 2026-04-24 01:26 | 23.60718 | -20.46877 | 40091 ft | 441 kts | 220° |
| 2026-04-24 01:26 | 23.55550 | -20.50407 | 40087 ft | 441 kts | 220° |
| 2026-04-24 01:27 | 23.50315 | -20.53978 | 40086 ft | 442 kts | 220° |
| 2026-04-24 01:27 | 23.45106 | -20.57529 | 40082 ft | 441 kts | 220° |
| 2026-04-24 01:28 | 23.39892 | -20.61080 | 40087 ft | 441 kts | 220° |
| 2026-04-24 01:28 | 23.34693 | -20.64616 | 40086 ft | 440 kts | 220° |
| 2026-04-24 01:29 | 23.29512 | -20.68139 | 40100 ft | 443 kts | 220° |
| 2026-04-24 01:29 | 23.24281 | -20.71692 | 40104 ft | 442 kts | 220° |
| 2026-04-24 01:30 | 23.19070 | -20.75226 | 40104 ft | 441 kts | 220° |
| 2026-04-24 01:30 | 23.13829 | -20.78779 | 40102 ft | 442 kts | 220° |
| 2026-04-24 01:31 | 23.08646 | -20.82288 | 40094 ft | 440 kts | 220° |
| 2026-04-24 01:31 | 23.03432 | -20.85816 | 40096 ft | 440 kts | 220° |
| 2026-04-24 01:32 | 22.98222 | -20.89338 | 40091 ft | 442 kts | 220° |
| 2026-04-24 01:32 | 22.93000 | -20.92866 | 40093 ft | 442 kts | 220° |
| 2026-04-24 01:33 | 22.87743 | -20.96412 | 40092 ft | 442 kts | 220° |
| 2026-04-24 01:33 | 22.82536 | -20.99923 | 40091 ft | 442 kts | 220° |
| 2026-04-24 01:34 | 22.77282 | -21.03460 | 40090 ft | 443 kts | 220° |
| 2026-04-24 01:34 | 22.72073 | -21.06966 | 40088 ft | 441 kts | 220° |
| 2026-04-24 01:35 | 22.66865 | -21.10465 | 40086 ft | 441 kts | 220° |
| 2026-04-24 01:35 | 22.61608 | -21.13998 | 40087 ft | 443 kts | 220° |
| 2026-04-24 01:36 | 22.56349 | -21.17528 | 40088 ft | 443 kts | 220° |
| 2026-04-24 01:36 | 22.51129 | -21.21027 | 40089 ft | 441 kts | 220° |
| 2026-04-24 01:37 | 22.45895 | -21.24532 | 40087 ft | 443 kts | 220° |
| 2026-04-24 01:37 | 22.40667 | -21.28031 | 40085 ft | 443 kts | 220° |
| 2026-04-24 01:38 | 22.35413 | -21.31543 | 40085 ft | 443 kts | 220° |
| 2026-04-24 01:38 | 22.30156 | -21.35055 | 40082 ft | 443 kts | 220° |
| 2026-04-24 01:39 | 22.24918 | -21.38553 | 40087 ft | 443 kts | 220° |
| 2026-04-24 01:39 | 22.19652 | -21.42063 | 40085 ft | 444 kts | 220° |
| 2026-04-24 01:40 | 22.14406 | -21.45558 | 40083 ft | 443 kts | 220° |
| 2026-04-24 01:40 | 22.09183 | -21.49034 | 40083 ft | 441 kts | 220° |
| 2026-04-24 01:41 | 22.03959 | -21.52508 | 40083 ft | 443 kts | 220° |
| 2026-04-24 01:41 | 21.98696 | -21.56007 | 40084 ft | 443 kts | 220° |
| 2026-04-24 01:42 | 21.93446 | -21.59491 | 40083 ft | 443 kts | 220° |
| 2026-04-24 01:42 | 21.88169 | -21.62992 | 40071 ft | 442 kts | 220° |
| 2026-04-24 01:43 | 21.82935 | -21.66460 | 40088 ft | 443 kts | 220° |
| 2026-04-24 01:43 | 21.77682 | -21.69939 | 40085 ft | 443 kts | 220° |
| 2026-04-24 01:44 | 21.72450 | -21.73400 | 40086 ft | 443 kts | 220° |
| 2026-04-24 01:44 | 21.67176 | -21.76887 | 40087 ft | 443 kts | 220° |
| 2026-04-24 01:45 | 21.61949 | -21.80338 | 40081 ft | 443 kts | 220° |
| 2026-04-24 01:45 | 21.56675 | -21.83819 | 40078 ft | 442 kts | 220° |
| 2026-04-24 01:46 | 21.51458 | -21.87258 | 40082 ft | 442 kts | 220° |
| 2026-04-24 01:46 | 21.46209 | -21.90717 | 40084 ft | 442 kts | 220° |
| 2026-04-24 01:47 | 21.40952 | -21.94175 | 40079 ft | 441 kts | 220° |
| 2026-04-24 01:47 | 21.35411 | -21.97100 | 40082 ft | 461 kts | 204° |
| 2026-04-24 01:47 | 21.32160 | -21.97659 | 40090 ft | 478 kts | 192° |
| 2026-04-24 01:48 | 21.28769 | -21.97506 | 40095 ft | 490 kts | 183° |
| 2026-04-24 01:48 | 21.21972 | -21.97216 | 40078 ft | 486 kts | 188° |
| 2026-04-24 01:49 | 21.15262 | -21.97133 | 40072 ft | 482 kts | 188° |
| 2026-04-24 01:49 | 21.08511 | -21.97067 | 40075 ft | 483 kts | 188° |
| 2026-04-24 01:50 | 21.01739 | -21.97002 | 40075 ft | 485 kts | 188° |
| 2026-04-24 01:50 | 20.94995 | -21.96936 | 40069 ft | 483 kts | 188° |
| 2026-04-24 01:51 | 20.88281 | -21.96873 | 40066 ft | 481 kts | 188° |
| 2026-04-24 01:51 | 20.81564 | -21.96809 | 40065 ft | 483 kts | 188° |
| 2026-04-24 01:52 | 20.74836 | -21.96744 | 40067 ft | 482 kts | 188° |
| 2026-04-24 01:52 | 20.68109 | -21.96680 | 40065 ft | 484 kts | 188° |
| 2026-04-24 01:53 | 20.61385 | -21.96615 | 40061 ft | 483 kts | 188° |
| 2026-04-24 01:53 | 20.54661 | -21.96551 | 40063 ft | 484 kts | 188° |
| 2026-04-24 01:54 | 20.47905 | -21.96486 | 40061 ft | 482 kts | 188° |
| 2026-04-24 01:54 | 20.41193 | -21.96423 | 40062 ft | 483 kts | 188° |
| 2026-04-24 01:55 | 20.34417 | -21.96358 | 40058 ft | 485 kts | 188° |
| 2026-04-24 01:55 | 20.27654 | -21.96293 | 40054 ft | 484 kts | 188° |
| 2026-04-24 01:56 | 20.20929 | -21.96230 | 40056 ft | 485 kts | 188° |
| 2026-04-24 01:56 | 20.14147 | -21.96165 | 40051 ft | 484 kts | 188° |
| 2026-04-24 01:57 | 20.07429 | -21.96101 | 40052 ft | 482 kts | 187° |
| 2026-04-24 01:57 | 20.00734 | -21.96036 | 40051 ft | 482 kts | 188° |
| 2026-04-24 01:58 | 19.93971 | -21.95973 | 40051 ft | 484 kts | 188° |
| 2026-04-24 01:58 | 19.87268 | -21.95910 | 40045 ft | 481 kts | 188° |
| 2026-04-24 01:59 | 19.80586 | -21.95847 | 40048 ft | 481 kts | 187° |
| 2026-04-24 01:59 | 19.73846 | -21.95783 | 40050 ft | 482 kts | 187° |
| 2026-04-24 02:00 | 19.67135 | -21.95720 | 40050 ft | 481 kts | 187° |
| 2026-04-24 02:00 | 19.60414 | -21.95657 | 40048 ft | 482 kts | 187° |
| 2026-04-24 02:01 | 19.53679 | -21.95594 | 40050 ft | 483 kts | 187° |
| 2026-04-24 02:01 | 19.46973 | -21.95529 | 40050 ft | 482 kts | 187° |
| 2026-04-24 02:02 | 19.40279 | -21.95466 | 40048 ft | 481 kts | 187° |
| 2026-04-24 02:02 | 19.33503 | -21.95402 | 40049 ft | 481 kts | 187° |
| 2026-04-24 02:03 | 19.23456 | -21.95308 | 40049 ft | 481 kts | 187° |
| 2026-04-24 02:03 | 19.16783 | -21.95245 | 40042 ft | 481 kts | 187° |
| 2026-04-24 02:04 | 19.10067 | -21.95182 | 40034 ft | 482 kts | 187° |
| 2026-04-24 02:04 | 19.03324 | -21.95119 | 40030 ft | 481 kts | 187° |
| 2026-04-24 02:05 | 18.96629 | -21.95056 | 40030 ft | 479 kts | 186° |
| 2026-04-24 02:05 | 18.89937 | -21.94994 | 40031 ft | 480 kts | 186° |
| 2026-04-24 02:06 | 18.83267 | -21.94931 | 40028 ft | 480 kts | 186° |
| 2026-04-24 02:06 | 18.76576 | -21.94869 | 40027 ft | 480 kts | 186° |
| 2026-04-24 02:07 | 18.69851 | -21.94806 | 40030 ft | 481 kts | 186° |
| 2026-04-24 02:07 | 18.63160 | -21.94743 | 40028 ft | 480 kts | 186° |
| 2026-04-24 02:08 | 18.56438 | -21.94680 | 40028 ft | 480 kts | 186° |
| 2026-04-24 02:08 | 18.49760 | -21.94618 | 40028 ft | 480 kts | 186° |
| 2026-04-24 02:09 | 18.43078 | -21.94556 | 40029 ft | 482 kts | 186° |
| 2026-04-24 02:09 | 18.36369 | -21.94494 | 40029 ft | 481 kts | 186° |
| 2026-04-24 02:10 | 18.29648 | -21.94431 | 40031 ft | 481 kts | 186° |
| 2026-04-24 02:10 | 18.22929 | -21.94369 | 40030 ft | 481 kts | 186° |
| 2026-04-24 02:11 | 18.16255 | -21.94307 | 40029 ft | 481 kts | 186° |
| 2026-04-24 02:11 | 18.09586 | -21.94244 | 39430 ft | 478 kts | 186° |
| 2026-04-24 02:12 | 18.06198 | -21.94213 | 38076 ft | 485 kts | 186° |
| 2026-04-24 02:12 | 18.02855 | -21.94183 | 37679 ft | 488 kts | 186° |
| 2026-04-24 02:12 | 17.99392 | -21.94153 | 36936 ft | 499 kts | 186° |
| 2026-04-24 02:12 | 17.95919 | -21.94118 | 36243 ft | 497 kts | 186° |
| 2026-04-24 02:13 | 17.92489 | -21.94086 | 35559 ft | 494 kts | 186° |
| 2026-04-24 02:13 | 17.89037 | -21.94055 | 34878 ft | 492 kts | 186° |
| 2026-04-24 02:13 | 17.85585 | -21.94023 | 34207 ft | 494 kts | 186° |
| 2026-04-24 02:13 | 17.82153 | -21.93993 | 33551 ft | 501 kts | 185° |
| 2026-04-24 02:14 | 17.78610 | -21.93961 | 32817 ft | 508 kts | 185° |
| 2026-04-24 02:14 | 17.75076 | -21.93926 | 32058 ft | 509 kts | 185° |
| 2026-04-24 02:14 | 17.71565 | -21.93893 | 31311 ft | 504 kts | 185° |
| 2026-04-24 02:14 | 17.68136 | -21.94252 | 30671 ft | 487 kts | 196° |
| 2026-04-24 02:15 | 17.64813 | -21.94919 | 30199 ft | 471 kts | 202° |
| 2026-04-24 02:15 | 17.61911 | -21.96251 | 29497 ft | 454 kts | 217° |
| 2026-04-24 02:15 | 17.59435 | -21.98246 | 28764 ft | 445 kts | 225° |
| 2026-04-24 02:15 | 17.57042 | -22.00263 | 28203 ft | 439 kts | 224° |
| 2026-04-24 02:16 | 17.54672 | -22.02241 | 27561 ft | 436 kts | 224° |
| 2026-04-24 02:16 | 17.52291 | -22.04217 | 26889 ft | 434 kts | 224° |
| 2026-04-24 02:16 | 17.49940 | -22.06162 | 26229 ft | 431 kts | 223° |
| 2026-04-24 02:16 | 17.47598 | -22.08100 | 25568 ft | 429 kts | 223° |
| 2026-04-24 02:17 | 17.45263 | -22.10031 | 24938 ft | 425 kts | 223° |
| 2026-04-24 02:17 | 17.42945 | -22.11945 | 24320 ft | 422 kts | 223° |
| 2026-04-24 02:17 | 17.40640 | -22.13850 | 23558 ft | 422 kts | 223° |
| 2026-04-24 02:17 | 17.38366 | -22.15728 | 22776 ft | 421 kts | 223° |
| 2026-04-24 02:18 | 17.36066 | -22.17628 | 21965 ft | 421 kts | 223° |
| 2026-04-24 02:18 | 17.33773 | -22.19521 | 21165 ft | 421 kts | 223° |
| 2026-04-24 02:18 | 17.31459 | -22.21429 | 20345 ft | 419 kts | 222° |
| 2026-04-24 02:18 | 17.29203 | -22.23289 | 19483 ft | 409 kts | 222° |
| 2026-04-24 02:19 | 17.27005 | -22.25101 | 18671 ft | 400 kts | 222° |
| 2026-04-24 02:19 | 17.24833 | -22.26891 | 18133 ft | 394 kts | 221° |
| 2026-04-24 02:19 | 17.22703 | -22.28645 | 17633 ft | 387 kts | 221° |
| 2026-04-24 02:19 | 17.20606 | -22.30373 | 17141 ft | 382 kts | 221° |
| 2026-04-24 02:20 | 17.18548 | -22.32068 | 16643 ft | 377 kts | 221° |
| 2026-04-24 02:20 | 17.16480 | -22.33769 | 16141 ft | 372 kts | 221° |
| 2026-04-24 02:20 | 17.14477 | -22.35416 | 15650 ft | 367 kts | 221° |
| 2026-04-24 02:20 | 17.12462 | -22.37075 | 15140 ft | 363 kts | 221° |
| 2026-04-24 02:21 | 17.10498 | -22.38691 | 14638 ft | 358 kts | 220° |
| 2026-04-24 02:21 | 17.08545 | -22.40296 | 14136 ft | 354 kts | 220° |
| 2026-04-24 02:21 | 17.06617 | -22.41881 | 13628 ft | 351 kts | 220° |
| 2026-04-24 02:21 | 17.04715 | -22.43444 | 13120 ft | 347 kts | 220° |
| 2026-04-24 02:22 | 17.02842 | -22.44983 | 12626 ft | 343 kts | 220° |
| 2026-04-24 02:22 | 17.00970 | -22.46521 | 12141 ft | 340 kts | 220° |
| 2026-04-24 02:22 | 16.99110 | -22.48048 | 11673 ft | 336 kts | 220° |
| 2026-04-24 02:22 | 16.97291 | -22.49541 | 11233 ft | 332 kts | 220° |
| 2026-04-24 02:23 | 16.95485 | -22.51026 | 10819 ft | 327 kts | 220° |
| 2026-04-24 02:23 | 16.93716 | -22.52481 | 10432 ft | 322 kts | 220° |
| 2026-04-24 02:23 | 16.91970 | -22.53912 | 10285 ft | 311 kts | 220° |
| 2026-04-24 02:23 | 16.90287 | -22.55293 | 10196 ft | 301 kts | 220° |
| 2026-04-24 02:24 | 16.88681 | -22.56609 | 10092 ft | 290 kts | 220° |
| 2026-04-24 02:24 | 16.87108 | -22.57899 | 9989 ft | 279 kts | 220° |
| 2026-04-24 02:24 | 16.85592 | -22.59142 | 9707 ft | 277 kts | 220° |
| 2026-04-24 02:24 | 16.84092 | -22.60372 | 9420 ft | 274 kts | 220° |
| 2026-04-24 02:25 | 16.82597 | -22.61596 | 9141 ft | 272 kts | 220° |
| 2026-04-24 02:25 | 16.81107 | -22.62817 | 8870 ft | 269 kts | 220° |
| 2026-04-24 02:25 | 16.79646 | -22.64013 | 8607 ft | 267 kts | 220° |
| 2026-04-24 02:25 | 16.78174 | -22.65218 | 8344 ft | 264 kts | 220° |
| 2026-04-24 02:26 | 16.76750 | -22.66384 | 8094 ft | 262 kts | 220° |
| 2026-04-24 02:26 | 16.75301 | -22.67570 | 7841 ft | 260 kts | 220° |
| 2026-04-24 02:26 | 16.73884 | -22.68730 | 7598 ft | 257 kts | 220° |
| 2026-04-24 02:26 | 16.72478 | -22.69880 | 7351 ft | 256 kts | 220° |
| 2026-04-24 02:27 | 16.71085 | -22.71019 | 7108 ft | 254 kts | 220° |
| 2026-04-24 02:27 | 16.69709 | -22.72145 | 6854 ft | 253 kts | 220° |
| 2026-04-24 02:27 | 16.68321 | -22.73279 | 6604 ft | 252 kts | 220° |
| 2026-04-24 02:27 | 16.66932 | -22.74414 | 6353 ft | 251 kts | 220° |
| 2026-04-24 02:28 | 16.65560 | -22.75537 | 6099 ft | 250 kts | 219° |
| 2026-04-24 02:28 | 16.64203 | -22.76645 | 5844 ft | 250 kts | 219° |
| 2026-04-24 02:28 | 16.62826 | -22.77771 | 5583 ft | 249 kts | 220° |
| 2026-04-24 02:28 | 16.61459 | -22.78888 | 5316 ft | 250 kts | 219° |
| 2026-04-24 02:29 | 16.60082 | -22.80012 | 5036 ft | 251 kts | 219° |
| 2026-04-24 02:29 | 16.58701 | -22.81140 | 4749 ft | 252 kts | 219° |
| 2026-04-24 02:29 | 16.57311 | -22.82275 | 4446 ft | 254 kts | 219° |
| 2026-04-24 02:29 | 16.55932 | -22.83408 | 4344 ft | 249 kts | 222° |
| 2026-04-24 02:30 | 16.54949 | -22.84831 | 4256 ft | 243 kts | 252° |
| 2026-04-24 02:30 | 16.54717 | -22.86590 | 3940 ft | 244 kts | 275° |
| 2026-04-24 02:30 | 16.54739 | -22.88289 | 3883 ft | 232 kts | 272° |
| 2026-04-24 02:30 | 16.54733 | -22.89976 | 3791 ft | 229 kts | 272° |
| 2026-04-24 02:31 | 16.54724 | -22.91617 | 3716 ft | 229 kts | 272° |
| 2026-04-24 02:31 | 16.55025 | -22.93212 | 3627 ft | 224 kts | 301° |
| 2026-04-24 02:31 | 16.56089 | -22.94353 | 3578 ft | 217 kts | 335° |
| 2026-04-24 02:31 | 16.57506 | -22.94700 | 3540 ft | 206 kts | 359° |
| 2026-04-24 02:32 | 16.58967 | -22.94757 | 3255 ft | 211 kts | 360° |
| 2026-04-24 02:32 | 16.60439 | -22.94790 | 2871 ft | 211 kts | 1° |
| 2026-04-24 02:32 | 16.61865 | -22.94810 | 2443 ft | 201 kts | 2° |
| 2026-04-24 02:32 | 16.63218 | -22.94824 | 2026 ft | 186 kts | 2° |
| 2026-04-24 02:33 | 16.64456 | -22.94834 | 1798 ft | 168 kts | 3° |
| 2026-04-24 02:33 | 16.65571 | -22.94842 | 1548 ft | 154 kts | 4° |
| 2026-04-24 02:33 | 16.66584 | -22.94850 | 1338 ft | 140 kts | 4° |
| 2026-04-24 02:33 | 16.67538 | -22.94855 | 1127 ft | 134 kts | 4° |
| 2026-04-24 02:34 | 16.68458 | -22.94860 | 945 ft | 131 kts | 5° |
| 2026-04-24 02:34 | 16.69390 | -22.94866 | 764 ft | 132 kts | 4° |
| 2026-04-24 02:34 | 16.70310 | -22.94872 | 584 ft | 133 kts | 5° |
| 2026-04-24 02:34 | 16.71238 | -22.94878 | 407 ft | 132 kts | 5° |
| 2026-04-24 02:35 | 16.72166 | -22.94885 | 249 ft | 134 kts | 4° |
| 2026-04-24 02:35 | 16.73053 | -22.94892 | 195 ft | 104 kts | 0° |
| 2026-04-24 02:35 | 16.73489 | -22.94896 | 198 ft | 19 kts | 359° |
| 2026-04-24 02:35 | 16.73603 | -22.94895 | 198 ft | 17 kts | 0° |
| 2026-04-24 02:36 | 16.73739 | -22.94893 | 197 ft | 22 kts | 0° |
| 2026-04-24 02:36 | 16.73913 | -22.94895 | 195 ft | 26 kts | 360° |
| 2026-04-24 02:36 | 16.74102 | -22.94897 | 192 ft | 27 kts | 358° |
| 2026-04-24 02:36 | 16.74219 | -22.94875 | 190 ft | 16 kts | 43° |
| 2026-04-24 02:37 | 16.74281 | -22.94775 | 190 ft | 16 kts | 58° |
| 2026-04-24 02:37 | 16.74262 | -22.94700 | 190 ft | 13 kts | 174° |
| 2026-04-24 02:37 | 16.74170 | -22.94699 | 191 ft | 12 kts | 180° |
| 2026-04-24 02:37 | 16.74086 | -22.94699 | 192 ft | 12 kts | 180° |
| 2026-04-24 02:38 | 16.73990 | -22.94698 | 192 ft | 14 kts | 179° |
| 2026-04-24 02:38 | 16.73881 | -22.94697 | 193 ft | 16 kts | 180° |
| 2026-04-24 02:38 | 16.73763 | -22.94697 | 194 ft | 16 kts | 179° |
| 2026-04-24 02:38 | 16.73645 | -22.94692 | 192 ft | 16 kts | 163° |
| 2026-04-24 02:39 | 16.73589 | -22.94603 | 189 ft | 13 kts | 145° |
| 2026-04-24 02:39 | 16.73498 | -22.94596 | 190 ft | 12 kts | 180° |
| 2026-04-24 02:39 | 16.73424 | -22.94595 | 192 ft | 9 kts | 179° |
| 2026-04-24 02:39 | 16.73357 | -22.94595 | 194 ft | 11 kts | 179° |
| 2026-04-24 02:40 | 16.73278 | -22.94595 | 195 ft | 10 kts | 180° |
| 2026-04-24 02:40 | 16.73206 | -22.94595 | 196 ft | 9 kts | 180° |
| 2026-04-24 02:40 | 16.73171 | -22.94559 | 196 ft | 8 kts | 94° |
| 2026-04-24 02:40 | 16.73170 | -22.94513 | 196 ft | 1 kts | 90° |
| 2026-04-24 02:41 | 16.73170 | -22.94504 | 196 ft | 0 kts | 89° |